Flight Track Log - Related Links

Times and Time Zones

All times are in EDT time to prevent confusion due to time zone crossing. See the SWA127 flight status page for this flight to view local times or setup timezone preferences in your user account.

Time Position Orientation Groundspeed Altitude Reporting Facility
EDT Latitude Longitude Course Direction KTS MPH feet Rate Location/Type
Thu 11:31:10 AM 33.6667 -84.3500 252° West 204 235 2,900  Level Atlanta TRACON
Thu 11:32:10 AM 33.7000 -84.2833 59° Northeast 238 274 5,000 2,190 Climbing Atlanta TRACON
Thu 11:33:16 AM 33.7667 -84.2833 360° North 274 315 7,500 2,033 Climbing Atlanta TRACON
Thu 11:35:10 AM 33.8125 -84.4314 290° West 285 328 11,100 1,793 Climbing Atlanta Center
Thu 11:36:00 AM 33.7646 -84.7453 252° West  Level FlightAware Approximate
Thu 11:36:10 AM 33.8100 -84.5489 269° West 313 360 12,700  Level Atlanta Center
Thu 11:37:10 AM 33.8053 -84.6689 267° West 341 392 15,200 2,400 Climbing Atlanta Center
Thu 11:38:10 AM 33.8128 -84.7914 274° West 365 420 17,500 2,250 Climbing Atlanta Center
Thu 11:39:10 AM 33.8161 -84.9289 272° West 387 445 19,700 2,100 Climbing Atlanta Center
Thu 11:40:10 AM 33.8214 -85.0664 273° West 401 461 21,700 1,950 Climbing Atlanta Center
Thu 11:41:10 AM 33.8242 -85.2042 271° West 412 474 23,600 1,850 Climbing Atlanta Center
Thu 11:42:10 AM 33.8292 -85.3442 273° West 417 480 25,400 1,650 Climbing Atlanta Center
Thu 11:43:10 AM 33.8358 -85.4869 273° West 422 486 26,900 1,450 Climbing Atlanta Center
Thu 11:44:10 AM 33.8656 -85.6250 285° West 422 486 28,300 1,500 Climbing Atlanta Center
Thu 11:45:10 AM 33.9033 -85.7658 288° West 434 499 29,900 1,700 Climbing Atlanta Center
Thu 11:46:10 AM 33.9408 -85.9092 288° West 428 493 31,700 1,800 Climbing Atlanta Center
Thu 11:47:10 AM 33.9594 -86.0525 279° West 423 487 33,500 2,000 Climbing Atlanta Center
Thu 11:48:10 AM 33.9781 -86.1856 280° West 416 479 35,700 1,250 Climbing Atlanta Center
Thu 11:49:10 AM 33.9944 -86.3114 279° West 405 466 36,000 150 Climbing Atlanta Center
Thu 11:50:10 AM 34.0131 -86.4397 280° West 395 455 36,000  Level Atlanta Center
Thu 11:51:10 AM 34.0314 -86.5656 280° West 389 448 36,000  Level Atlanta Center
Thu 11:52:10 AM 34.0494 -86.6939 280° West 389 448 36,000  Level Atlanta Center
Thu 11:53:10 AM 34.0656 -86.8172 279° West 389 448 36,000  Level Atlanta Center
Thu 11:54:14 AM 34.0836 -86.9475 280° West 385 443 36,000  Level Memphis Center
Thu 11:55:16 AM 34.1000 -87.0744 279° West 385 443 36,000  Level Memphis Center
Thu 11:56:18 AM 34.1178 -87.2022 280° West 385 443 36,000  Level Memphis Center
Thu 11:57:20 AM 34.1342 -87.3292 279° West 385 443 36,000  Level Memphis Center
Thu 11:58:22 AM 34.1539 -87.4850 279° West 388 447 36,000  Level Memphis Center
Thu 11:59:24 AM 34.1703 -87.6161 279° West 392 451 36,000  Level Memphis Center
Thu 12:00:26 PM 34.1886 -87.7458 280° West 392 451 36,000  Level Memphis Center
Thu 12:01:28 PM 34.2056 -87.8839 278° West 392 451 36,000  Level Memphis Center
Thu 12:02:30 PM 34.2228 -88.0147 279° West 392 451 36,000  Level Memphis Center
Thu 12:03:33 PM 34.2403 -88.1456 275° West 392 451 36,000  Level Memphis Center
Thu 12:04:00 PM 34.2359 -88.2143 275° West  Level FlightAware Approximate
Thu 12:04:35 PM 34.2561 -88.2769 278° West 393 452 36,000  Level Memphis Center
Thu 12:05:37 PM 34.2722 -88.4078 279° West 393 452 36,000  Level Memphis Center
Thu 12:06:39 PM 34.2903 -88.5656 278° West 394 453 36,000  Level Memphis Center
Thu 12:07:41 PM 34.3072 -88.6967 279° West 394 453 36,000  Level Memphis Center
Thu 12:09:45 PM 34.3381 -88.9522 278° West 397 457 36,000  Level Memphis Center
Thu 12:10:47 PM 34.3572 -89.1139 278° West 399 459 36,000  Level Memphis Center
Thu 12:11:49 PM 34.3725 -89.2481 278° West 400 460 36,000  Level Memphis Center
Thu 12:12:51 PM 34.3869 -89.3839 277° West 401 461 36,000  Level Memphis Center
Thu 12:13:53 PM 34.4039 -89.5189 279° West 402 463 36,000  Level Memphis Center
Thu 12:14:56 PM 34.4186 -89.6553 277° West 403 464 36,000  Level Memphis Center
Thu 12:15:58 PM 34.4347 -89.7925 278° West 404 465 36,000  Level Memphis Center
Thu 12:17:00 PM 34.4503 -89.9292 278° West 405 466 36,000  Level Memphis Center
Thu 12:18:02 PM 34.4681 -90.0914 278° West 405 466 36,000  Level Memphis Center
Thu 12:19:04 PM 34.4822 -90.2253 277° West 404 465 36,000  Level Memphis Center
Thu 12:20:06 PM 34.4967 -90.3589 278° West 403 464 36,000  Level Memphis Center
Thu 12:21:08 PM 34.5114 -90.4922 278° West 403 464 36,000  Level Memphis Center
Thu 12:22:10 PM 34.5247 -90.6228 277° West 396 456 36,000  Level Memphis Center
Thu 12:23:12 PM 34.5383 -90.7542 277° West 396 456 36,000  Level Memphis Center
Thu 12:24:14 PM 34.5553 -90.9136 277° West 396 456 36,000  Level Memphis Center
Thu 12:25:16 PM 34.5686 -91.0478 277° West 397 457 36,000  Level Memphis Center
Thu 12:26:18 PM 34.5831 -91.1808 278° West 397 457 36,000  Level Memphis Center
Thu 12:27:20 PM 34.5944 -91.3161 276° West 401 461 36,000  Level Memphis Center
Thu 12:28:22 PM 34.6081 -91.4514 277° West 403 464 36,000  Level Memphis Center
Thu 12:29:25 PM 34.6214 -91.5878 277° West 404 465 36,000  Level Memphis Center
Thu 12:30:27 PM 34.6378 -91.7517 277° West 404 465 36,000 774 Level Memphis Center
Thu 12:31:29 PM 34.6503 -91.8903 276° West 404 465 37,600 968 Climbing Memphis Center
Thu 12:32:31 PM 34.6622 -92.0186 276° West 388 447 38,000 194 Climbing Memphis Center
Thu 12:33:33 PM 34.6756 -92.1481 277° West 388 447 38,000  Level Memphis Center
Thu 12:34:35 PM 34.6864 -92.2794 276° West 388 447 38,000  Level Memphis Center
Thu 12:35:37 PM 34.6997 -92.4103 277° West 388 447 38,000  Level Memphis Center
Thu 12:36:39 PM 34.7128 -92.5408 277° West 388 447 38,000  Level Memphis Center
Thu 12:37:41 PM 34.7281 -92.6994 277° West 389 448 38,000  Level Memphis Center
Thu 12:38:43 PM 34.7397 -92.8319 276° West 390 449 38,000  Level Memphis Center
Thu 12:39:45 PM 34.7517 -92.9644 276° West 391 450 38,000  Level Memphis Center
Thu 12:40:48 PM 34.7633 -93.0978 276° West 391 450 38,000  Level Memphis Center
Thu 12:41:50 PM 34.7750 -93.2311 276° West 391 450 38,000  Level Memphis Center
Thu 12:42:52 PM 34.7875 -93.3631 277° West 391 450 38,000  Level Memphis Center
Thu 12:43:54 PM 34.7994 -93.4964 276° West 392 451 38,000  Level Memphis Center
Thu 12:44:56 PM 34.8136 -93.6567 276° West 393 452 38,000  Level Memphis Center
Thu 12:45:58 PM 34.8247 -93.7886 276° West 393 452 38,000  Level Memphis Center
Thu 12:47:00 PM 34.8356 -93.9189 276° West 392 451 38,000  Level Memphis Center
Thu 12:48:02 PM 34.8464 -94.0411 276° West 387 445 38,000  Level Memphis Center
Thu 12:49:04 PM 34.8569 -94.1719 276° West 387 445 38,000  Level Memphis Center
Thu 12:50:06 PM 34.8694 -94.3325 275° West 392 451 38,000  Level Memphis Center
Thu 12:51:08 PM 34.8789 -94.4478 276° West 394 453 38,000  Level Memphis Center
Thu 12:52:10 PM 34.8911 -94.6072 275° West 394 453 38,000  Level Memphis Center
Thu 12:53:13 PM 34.9017 -94.7483 275° West 394 453 38,000  Level Memphis Center
Thu 12:54:15 PM 34.9125 -94.8822 276° West 394 453 38,000  Level Memphis Center
Thu 12:55:17 PM 34.9222 -95.0158 275° West 394 453 38,000  Level Memphis Center
Thu 12:56:19 PM 34.9319 -95.1494 275° West 395 455 38,000  Level Memphis Center
Thu 12:57:21 PM 34.9411 -95.2844 275° West 395 455 38,000  Level Memphis Center
Thu 12:58:23 PM 34.9511 -95.4219 275° West 400 460 38,000  Level Memphis Center
Thu 12:59:42 PM 34.9658 -95.6083 276° West 403 464 38,000  Level Fort Worth Center
Thu 01:00:43 PM 34.9747 -95.7458 275° West 404 465 38,000  Level Fort Worth Center
Thu 01:01:45 PM 34.9847 -95.8986 275° West 408 470 38,000  Level Fort Worth Center
Thu 01:02:48 PM 34.9939 -96.0353 275° West 406 467 38,000  Level Fort Worth Center
Thu 01:03:49 PM 35.0022 -96.1714 274° West 406 467 38,000  Level Fort Worth Center
Thu 01:04:51 PM 35.0103 -96.3106 274° West 409 471 38,000  Level Fort Worth Center
Thu 01:05:53 PM 35.0200 -96.4489 275° West 409 471 38,000  Level Fort Worth Center
Thu 01:06:54 PM 35.0283 -96.5864 274° West 406 467 38,000  Level Fort Worth Center
Thu 01:07:56 PM 35.0361 -96.7239 274° West 407 468 38,000  Level Fort Worth Center
Thu 01:08:58 PM 35.0456 -96.8908 274° West 409 471 38,000  Level Fort Worth Center
Thu 01:09:59 PM 35.0536 -97.0281 274° West 404 465 38,000  Level Fort Worth Center
Thu 01:11:01 PM 35.0592 -97.1678 273° West 408 470 38,000  Level Fort Worth Center
Thu 01:12:03 PM 35.0639 -97.3064 272° West 407 468 38,000  Level Fort Worth Center
Thu 01:13:04 PM 35.0700 -97.4475 273° West 410 472 38,000  Level Fort Worth Center
Thu 01:14:06 PM 35.0756 -97.5861 273° West 409 471 38,000  Level Fort Worth Center
Thu 01:15:08 PM 35.0814 -97.7242 273° West 407 468 38,000  Level Fort Worth Center
Thu 01:16:09 PM 35.0861 -97.8597 272° West 402 463 38,000  Level Fort Worth Center
Thu 01:17:11 PM 35.0908 -97.9964 272° West 401 461 38,000  Level Fort Worth Center
Thu 01:18:13 PM 35.0961 -98.1611 272° West 402 463 38,000  Level Fort Worth Center
Thu 01:19:14 PM 35.0997 -98.2972 272° West 402 463 38,000  Level Fort Worth Center
Thu 01:20:16 PM 35.1056 -98.4347 273° West 402 463 38,000  Level Fort Worth Center
Thu 01:21:18 PM 35.1094 -98.5775 272° West 402 463 38,000  Level Fort Worth Center
Thu 01:22:19 PM 35.1136 -98.7144 272° West 402 463 38,000  Level Fort Worth Center
Thu 01:23:21 PM 35.1169 -98.8506 272° West 402 463 38,000  Level Fort Worth Center
Thu 01:24:23 PM 35.1206 -98.9869 272° West 401 461 38,000  Level Fort Worth Center
Thu 01:25:24 PM 35.1242 -99.1228 272° West 400 460 38,000  Level Fort Worth Center
Thu 01:26:26 PM 35.1264 -99.2572 271° West 397 457 38,000  Level Fort Worth Center
Thu 01:27:28 PM 35.1303 -99.3903 272° West 393 452 38,000  Level Fort Worth Center
Thu 01:28:29 PM 35.1331 -99.5250 271° West 393 452 38,000  Level Fort Worth Center
Thu 01:29:31 PM 35.1361 -99.6594 272° West 393 452 38,000  Level Fort Worth Center
Thu 01:30:33 PM 35.1392 -99.8200 271° West 393 452 38,000  Level Fort Worth Center
Thu 01:31:34 PM 35.1419 -99.9547 271° West 394 453 38,000  Level Fort Worth Center
Thu 01:32:36 PM 35.1431 -100.0889 271° West 394 453 38,000  Level Fort Worth Center
Thu 01:33:38 PM 35.1450 -100.2231 271° West 395 455 38,000  Level Fort Worth Center
Thu 01:34:39 PM 35.1461 -100.3575 271° West 394 453 38,000  Level Albuquerque Center
Thu 01:35:41 PM 35.1492 -100.5036 272° West 394 453 38,000  Level Albuquerque Center
Thu 01:36:42 PM 35.1497 -100.6383 270° West 395 455 38,000  Level Albuquerque Center
Thu 01:37:44 PM 35.1503 -100.7719 270° West 395 455 38,000  Level Albuquerque Center
Thu 01:38:46 PM 35.1483 -100.9067 269° West 395 455 38,000  Level Albuquerque Center
Thu 01:39:47 PM 35.1469 -101.0422 269° West 396 456 38,000  Level Albuquerque Center
Thu 01:40:49 PM 35.1450 -101.1769 269° West 396 456 38,000  Level Albuquerque Center
Thu 01:41:51 PM 35.1442 -101.3322 270° West 397 457 38,000  Level Albuquerque Center
Thu 01:42:52 PM 35.1436 -101.4700 270° West 399 459 38,000  Level Albuquerque Center
Thu 01:43:54 PM 35.1425 -101.6042 269° West 397 457 38,000  Level Albuquerque Center
Thu 01:44:56 PM 35.1375 -101.7389 267° West 398 458 38,000  Level Albuquerque Center
Thu 01:45:57 PM 35.1372 -101.8739 270° West 398 458 38,000  Level Albuquerque Center
Thu 01:48:01 PM 35.1300 -102.1558 268° West 393 452 38,000  Level Albuquerque Center
Thu 01:49:02 PM 35.1283 -102.2867 269° West 390 449 38,000  Level Albuquerque Center
Thu 01:50:04 PM 35.1250 -102.4194 268° West 390 449 38,000  Level Albuquerque Center
Thu 01:51:06 PM 35.1231 -102.5519 269° West 390 449 38,000  Level Albuquerque Center
Thu 01:52:07 PM 35.1197 -102.6836 268° West 390 449 38,000  Level Albuquerque Center
Thu 01:53:09 PM 35.1175 -102.8167 269° West 390 449 38,000  Level Albuquerque Center
Thu 01:54:11 PM 35.1144 -102.9647 269° West 390 449 38,000  Level Albuquerque Center
Thu 01:55:12 PM 35.1108 -103.0989 268° West 391 450 38,000  Level Albuquerque Center
Thu 01:56:14 PM 35.1075 -103.2328 268° West 391 450 38,000  Level Albuquerque Center
Thu 01:57:16 PM 35.1031 -103.3664 268° West 391 450 38,000  Level Albuquerque Center
Thu 01:58:17 PM 35.0997 -103.4989 268° West 391 450 38,000  Level Albuquerque Center
Thu 01:59:19 PM 35.0950 -103.6556 268° West 391 450 38,000  Level Albuquerque Center
Thu 02:00:21 PM 35.0906 -103.7928 268° West 397 457 38,000  Level Albuquerque Center
Thu 02:01:22 PM 35.0853 -103.9283 267° West 397 457 38,000  Level Albuquerque Center
Thu 02:02:24 PM 35.0822 -104.0472 268° West 399 459 38,000  Level Albuquerque Center
Thu 02:03:26 PM 35.0778 -104.2094 268° West 399 459 38,000  Level Albuquerque Center
Thu 02:04:27 PM 35.0686 -104.3461 265° West 400 460 38,000  Level Albuquerque Center
Thu 02:05:29 PM 35.0639 -104.4850 268° West 400 460 38,000  Level Albuquerque Center
Thu 02:06:31 PM 35.0597 -104.6217 268° West 400 460 38,000  Level Albuquerque Center
Thu 02:07:32 PM 35.0547 -104.7586 267° West 400 460 38,000  Level Albuquerque Center
Thu 02:08:34 PM 35.0486 -104.8975 267° West 401 461 38,000  Level Albuquerque Center
Thu 02:09:36 PM 35.0436 -105.0361 268° West 402 463 38,000  Level Albuquerque Center
Thu 02:10:37 PM 35.0372 -105.1744 267° West 403 464 38,000  Level Albuquerque Center
Thu 02:11:39 PM 35.0311 -105.3131 267° West 403 464 38,000  Level Albuquerque Center
Thu 02:12:41 PM 35.0233 -105.4756 267° West 403 464 38,000  Level Albuquerque Center
Thu 02:13:42 PM 35.0178 -105.6075 267° West 404 465 38,000  Level Albuquerque Center
Thu 02:14:44 PM 35.0111 -105.7450 267° West 404 465 38,000  Level Albuquerque Center
Thu 02:15:46 PM 35.0036 -105.8800 266° West 402 463 38,000  Level Albuquerque Center
Thu 02:16:48 PM 34.9964 -106.0175 266° West 402 463 38,000  Level Albuquerque Center
Thu 02:17:49 PM 34.9900 -106.1553 267° West 402 463 38,000  Level Albuquerque Center
Thu 02:18:51 PM 34.9822 -106.2939 266° West 404 465 38,000  Level Albuquerque Center
Thu 02:19:53 PM 34.9747 -106.4344 266° West 410 472 38,000  Level Albuquerque Center
Thu 02:20:54 PM 34.9664 -106.6050 267° West 416 479 38,000  Level Albuquerque Center
Thu 02:21:56 PM 34.9592 -106.7478 267° West 418 481 38,000  Level Albuquerque Center
Thu 02:22:58 PM 34.9511 -106.8947 266° West 418 481 38,000  Level Albuquerque Center
Thu 02:24:00 PM 34.9425 -107.0350 266° West 418 481 38,000  Level Albuquerque Center
Thu 02:25:02 PM 34.9344 -107.1856 266° West 418 481 38,000  Level Albuquerque Center
Thu 02:26:03 PM 34.9253 -107.3278 266° West 419 482 38,000  Level Albuquerque Center
Thu 02:27:05 PM 34.9169 -107.4808 266° West 420 483 38,000  Level Albuquerque Center
Thu 02:28:07 PM 34.9078 -107.6144 265° West 431 496 38,000  Level Albuquerque Center
Thu 02:29:09 PM 34.9000 -107.7572 266° West 429 494 38,000  Level Albuquerque Center
Thu 02:30:11 PM 34.8886 -107.9008 265° West 428 493 38,000  Level Albuquerque Center
Thu 02:31:13 PM 34.8792 -108.0439 265° West 428 493 38,000  Level Albuquerque Center
Thu 02:32:14 PM 34.8686 -108.2097 266° West 425 489 38,000  Level Albuquerque Center
Thu 02:33:16 PM 34.8594 -108.3481 265° West 425 489 38,000  Level Albuquerque Center
Thu 02:34:18 PM 34.8478 -108.5106 265° West 427 491 38,000  Level Albuquerque Center
Thu 02:35:20 PM 34.8375 -108.6497 265° West 427 491 38,000  Level Albuquerque Center
Thu 02:36:22 PM 34.8267 -108.8117 265° West 427 491 38,000  Level Albuquerque Center
Thu 02:37:24 PM 34.8156 -108.9514 265° West 428 493 38,000  Level Albuquerque Center
Thu 02:38:26 PM 34.8042 -109.1133 265° West 428 493 38,000  Level Albuquerque Center
Thu 02:39:28 PM 34.7933 -109.2522 265° West 428 493 38,000  Level Albuquerque Center
Thu 02:40:30 PM 34.7828 -109.3931 265° West 429 494 38,000  Level Albuquerque Center
Thu 02:41:31 PM 34.7694 -109.5528 264° West 429 494 38,000  Level Albuquerque Center
Thu 02:42:33 PM 34.7589 -109.6903 265° West 428 493 38,000  Level Albuquerque Center
Thu 02:43:35 PM 34.7461 -109.8514 265° West 428 493 38,000  Level Albuquerque Center
Thu 02:44:37 PM 34.7344 -109.9875 264° West 426 490 38,000  Level Albuquerque Center
Thu 02:45:39 PM 34.7217 -110.1514 265° West 429 494 38,000  Level Albuquerque Center
Thu 02:46:41 PM 34.7125 -110.2925 266° West 436 502 38,000  Level Albuquerque Center
Thu 02:47:42 PM 34.7000 -110.4314 264° West 435 501 38,000  Level Albuquerque Center
Thu 02:48:44 PM 34.6844 -110.5939 263° West 435 501 38,000  Level Albuquerque Center
Thu 02:49:46 PM 34.6694 -110.7406 263° West 434 499 38,000  Level Albuquerque Center
Thu 02:50:48 PM 34.6550 -110.8867 263° West 435 501 38,000  Level Albuquerque Center
Thu 02:51:50 PM 34.6428 -111.0322 264° West 435 501 38,000  Level Albuquerque Center
Thu 02:52:52 PM 34.6283 -111.1753 263° West 433 498 38,000  Level Albuquerque Center
Thu 02:53:53 PM 34.6144 -111.3194 263° West 433 498 38,000  Level Albuquerque Center
Thu 02:54:55 PM 34.5989 -111.4942 264° West 434 499 38,000  Level Albuquerque Center
Thu 02:55:57 PM 34.5844 -111.6389 263° West 434 499 38,000  Level Albuquerque Center
Thu 02:56:59 PM 34.5711 -111.7819 264° West 434 499 38,000  Level Albuquerque Center
Thu 02:58:00 PM 34.5564 -111.9264 263° West 434 499 38,000  Level Albuquerque Center
Thu 02:59:02 PM 34.5414 -112.0706 263° West 434 499 38,000  Level Albuquerque Center
Thu 03:00:04 PM 34.5244 -112.2428 263° West 434 499 38,000  Level Albuquerque Center
Thu 03:01:06 PM 34.5089 -112.3869 263° West 434 499 38,000  Level Albuquerque Center
Thu 03:02:08 PM 34.4947 -112.5294 263° West 434 499 38,000  Level Albuquerque Center
Thu 03:03:09 PM 34.4789 -112.6714 262° West 433 498 38,000  Level Albuquerque Center
Thu 03:04:11 PM 34.4644 -112.8147 263° West 430 495 38,000  Level Albuquerque Center
Thu 03:05:13 PM 34.4494 -112.9567 263° West 430 495 38,000  Level Albuquerque Center
Thu 03:06:15 PM 34.4336 -113.0994 262° West 429 494 38,000  Level Albuquerque Center
Thu 03:07:17 PM 34.4156 -113.2719 263° West 429 494 38,000  Level Albuquerque Center
Thu 03:08:19 PM 34.3981 -113.4167 262° West 430 495 38,000  Level Albuquerque Center
Thu 03:09:20 PM 34.3831 -113.5611 263° West 432 497 38,000  Level Albuquerque Center
Thu 03:10:22 PM 34.3631 -113.7269 262° West 433 498 38,000  Level Albuquerque Center
Thu 03:11:24 PM 34.3461 -113.8717 262° West 436 502 38,000  Level Albuquerque Center
Thu 03:12:26 PM 34.3311 -114.0167 263° West 436 502 38,000  Level Albuquerque Center
Thu 03:13:28 PM 34.3144 -114.1639 262° West 437 503 38,000  Level Albuquerque Center
Thu 03:14:30 PM 34.2994 -114.3086 263° West 437 503 38,000  Level Albuquerque Center
Thu 03:15:32 PM 34.2842 -114.4533 263° West 436 502 38,000  Level Albuquerque Center
Thu 03:16:50 PM 34.2625 -114.6386 262° West 437 503 38,000  Level Los Angeles Center
Thu 03:17:52 PM 34.2431 -114.8150 262° West 439 505 38,000  Level Los Angeles Center
Thu 03:18:54 PM 34.2256 -114.9603 262° West 438 504 38,000  Level Los Angeles Center
Thu 03:19:56 PM 34.2092 -115.1050 262° West 438 504 38,000  Level Los Angeles Center
Thu 03:20:59 PM 34.1922 -115.2506 262° West 438 504 38,000  Level Los Angeles Center
Thu 03:22:01 PM 34.1742 -115.3958 261° West 438 504 38,000 -290 Level Los Angeles Center
Thu 03:23:03 PM 34.1564 -115.5397 262° West 437 503 37,400 -871 Descending Los Angeles Center
Thu 03:24:05 PM 34.1353 -115.7117 262° West 437 503 36,200 -1,016 Descending Los Angeles Center
Thu 03:25:07 PM 34.1172 -115.8586 262° West 438 504 35,300 -1,008 Descending Los Angeles Center
Thu 03:26:10 PM 34.0986 -116.0058 261° West 442 509 34,100 -1,776 Descending Los Angeles Center
Thu 03:27:12 PM 34.0803 -116.1539 262° West 445 512 31,600 -2,177 Descending Los Angeles Center
Thu 03:28:14 PM 34.0611 -116.2983 261° West 443 510 29,600 -2,613 Descending Los Angeles Center
Thu 03:29:16 PM 34.0383 -116.4644 261° West 427 491 26,200 -2,565 Descending Los Angeles Center
Thu 03:30:18 PM 34.0217 -116.5989 262° West 412 474 24,300 -1,776 Descending Los Angeles Center
Thu 03:31:21 PM 34.0072 -116.7267 262° West 395 455 22,500 -1,728 Descending Los Angeles Center
Thu 03:32:23 PM 33.9889 -116.8525 260° West 387 445 20,700 -1,781 Descending Los Angeles Center
Thu 03:33:29 PM 33.9667 -117.0000 260° West 369 425 18,700 -1,516 Descending Southern California TRACON
Thu 03:35:29 PM 33.9500 -117.2500 265° West 358 412 16,000 -1,500 Descending Southern California TRACON
Thu 03:36:29 PM 33.9333 -117.3667 260° West 338 389 14,200 -1,636 Descending Southern California TRACON
Thu 03:37:30 PM 33.9667 -117.4667 292° West 317 365 12,700 -1,326 Descending Southern California TRACON
Thu 03:39:30 PM 34.0167 -117.6667 287° West 307 353 10,200 -1,167 Descending Southern California TRACON
Thu 03:41:42 PM 33.9917 -117.8433 260° West 278 320 7,800 -1,175 Descending Los Angeles Center
Thu 03:42:44 PM 33.9811 -117.9511 263° West 274 315 6,400 -1,167 Descending Los Angeles Center
Thu 03:43:30 PM 33.9667 -118.0167 255° West 260 299 5,700 -962 Descending Southern California TRACON
Thu 03:44:30 PM 33.9667 -118.1000 270° West 251 289 4,700 -1,200 Descending Southern California TRACON
Thu 03:45:30 PM 33.9500 -118.1833 256° West 248 285 3,300 -1,300 Descending Southern California TRACON
Thu 03:46:30 PM 33.9500 -118.2500 270° West 204 235 2,100 -1,000 Descending Southern California TRACON
Thu 03:47:30 PM 33.9500 -118.3167 270° West 154 177 1,300 -770 Descending Southern California TRACON
Thu 03:48:58 PM 33.9394 -118.3769 258° West 147 169 200 -480 Descending Los Angeles Center
Thu 03:50:00 PM 33.9344 -118.4214 262° West 145 167 100 -97 Descending Los Angeles Center
Thu 03:51:00 PM 33.9333 -118.4000 90° East  Level FlightAware Approximate
Thu 03:58:00 PM 33.9425 -118.4081 90° East  Level Estimated

Login

Don't have an account? Register now (free) for customized features, flight alerts, and more!